Hovedside
METAR-TAF:

METAR-TAF

Lufthavner :

London Biggin Hill lufthavn

London Biggin Hill, England

breddegrad: 51-19N, lengdegrad: 000-02E, høyde over havet: 183 m

Gjeldene værobservasjon

Denne rapporten ble laget for 10 minutter siden, klokken 21:50 UTC
Vind 10 kt fra Sør-sørvest
Temperatur 7°C
Luftfuktighet 93%
Trykk 975 hPa
Sikt 10 km eller mer
Få skyer i en høyde av 1000 ft

METAR: EGKB 122150Z 21010KT 9999 FEW010 07/06 Q0975

Tid: 22:00 (22:00 UTC)

Varsel

Denne rapporten ble laget for 1 time og 58 minutter siden, klokken 20:02 UTC
Varsel gyldig fra 12. klokken 21 UTC til 12. klokken 23 UTC
Vind 10 kt fra Sørvest
Sikt 10 km eller mer
Brutte skyer i en høyde av 2000 ft
Sannsynlighet 30% :
Midlertidig
fra 12. klokken 21 UTC til 12. klokken 23 UTC
Brutte skyer i en høyde av 900 ft

TAF: EGKB 122002Z 1221/1223 23010KT 9999 BKN020 PROB30 TEMPO 1221/1223 BKN009

Værobservasjoner og værvarsel for over 4000 flyplasser (METAR- og TAF-rapporter).

Tilgjengelige stasjoner er representert av de røde og gule prikkene på kartet.

Hold musepekeren over prikken for å se navnet på stasjonen.

Klikk så for å se værobservasjoner og -varsler.

For å forandre kartet kan du klikke på den grønne knappen med svart kryss for å zoome inn, på den grønne knappen med strek for å zoome ut, eller på de grønne pilene for å se tilstøtende kart.


METAR-TAF: